createdAt,value
2019-01-25T00:05:19.501Z,48.30
2019-01-25T00:11:25.235Z,51.00
2019-01-25T00:17:30.920Z,50.83
2019-01-25T00:23:36.611Z,49.93
2019-01-25T00:29:42.314Z,51.63
2019-01-25T00:35:48.105Z,53.13
2019-01-25T00:41:53.950Z,53.07
2019-01-25T00:47:59.786Z,52.50
2019-01-25T00:54:06.099Z,52.00
2019-01-25T01:00:17.437Z,51.70
2019-01-25T01:06:23.374Z,53.70
2019-01-25T01:12:29.080Z,52.27
2019-01-25T01:18:35.134Z,50.90
2019-01-25T01:24:40.954Z,53.50
2019-01-25T01:30:46.641Z,51.27
2019-01-25T01:36:52.400Z,53.83
2019-01-25T01:42:58.072Z,52.80
2019-01-25T01:49:04.011Z,53.37
2019-01-25T01:55:10.341Z,52.23
2019-01-25T02:01:16.127Z,54.33
2019-01-25T02:07:21.904Z,54.83
2019-01-25T02:13:27.734Z,55.13
2019-01-25T02:19:33.414Z,54.07
2019-01-25T02:25:39.137Z,54.80
2019-01-25T02:31:44.876Z,52.93
2019-01-25T02:37:50.988Z,52.53
2019-01-25T02:43:56.652Z,54.43
2019-01-25T02:50:02.463Z,56.70
2019-01-25T02:56:08.486Z,54.40
2019-01-25T03:02:14.456Z,56.00
2019-01-25T03:08:20.502Z,54.20
2019-01-25T03:14:26.218Z,55.87
2019-01-25T03:20:32.053Z,52.47
2019-01-25T03:26:38.345Z,53.17
2019-01-25T03:32:44.070Z,54.57
2019-01-25T03:38:49.781Z,53.23
2019-01-25T03:44:55.465Z,52.27
2019-01-25T03:51:01.172Z,53.30
2019-01-25T03:57:06.979Z,54.43
2019-01-25T04:03:12.857Z,53.93
2019-01-25T04:09:22.505Z,54.07
2019-01-25T04:15:31.608Z,55.27
2019-01-25T04:21:37.319Z,53.23
2019-01-25T04:27:43.121Z,54.07
2019-01-25T04:33:48.830Z,49.73
2019-01-25T04:39:54.650Z,51.97
2019-01-25T04:46:00.508Z,52.03
2019-01-25T04:52:13.834Z,52.50
2019-01-25T04:58:20.623Z,53.13
2019-01-25T05:04:28.329Z,52.77
2019-01-25T05:10:34.210Z,53.30
2019-01-25T05:16:40.159Z,55.50
2019-01-25T05:22:46.075Z,54.73
2019-01-25T05:28:52.033Z,55.70
2019-01-25T05:34:58.014Z,53.47
2019-01-25T05:41:04.069Z,55.67
2019-01-25T05:47:12.027Z,52.53
2019-01-25T05:53:18.004Z,53.03
2019-01-25T05:59:26.190Z,52.87
2019-01-25T06:05:32.221Z,53.23
2019-01-25T06:11:39.359Z,53.03
2019-01-25T06:17:45.240Z,53.03
2019-01-25T06:23:55.025Z,49.97
2019-01-25T06:30:00.818Z,51.63
2019-01-25T06:36:08.370Z,50.03
2019-01-25T06:42:14.371Z,51.90
2019-01-25T06:48:20.875Z,52.23
2019-01-25T06:54:26.838Z,51.53
2019-01-25T07:00:34.932Z,52.57
2019-01-25T07:06:40.760Z,53.27
2019-01-25T07:12:46.651Z,52.37
2019-01-25T07:18:52.436Z,53.63
2019-01-25T07:24:58.265Z,53.43
2019-01-25T07:31:04.114Z,53.87
2019-01-25T07:37:09.867Z,53.23
2019-01-25T07:43:15.855Z,53.77
2019-01-25T07:49:21.809Z,54.43
2019-01-25T07:55:33.768Z,55.40
2019-01-25T08:01:40.144Z,57.23
2019-01-25T08:07:45.867Z,55.90
2019-01-25T08:13:51.769Z,57.83
2019-01-25T08:19:59.218Z,56.33
2019-01-25T08:26:05.463Z,56.47
2019-01-25T08:32:11.316Z,55.90
2019-01-25T08:38:17.585Z,58.03
2019-01-25T08:44:23.551Z,58.30
2019-01-25T08:50:29.416Z,58.20
2019-01-25T08:56:35.425Z,59.07
2019-01-25T09:02:41.599Z,59.13
2019-01-25T09:08:47.822Z,60.47
2019-01-25T09:14:54.088Z,60.27
2019-01-25T09:20:59.999Z,60.70
2019-01-25T09:27:06.061Z,59.90
2019-01-25T09:33:11.891Z,61.10
2019-01-25T09:39:17.883Z,63.23
2019-01-25T09:45:23.870Z,64.03
2019-01-25T09:51:29.732Z,62.17
2019-01-25T09:57:35.871Z,63.30
2019-01-25T10:03:42.019Z,61.63
2019-01-25T10:09:47.894Z,63.97
2019-01-25T10:15:54.621Z,63.57
2019-01-25T10:22:00.666Z,67.23
2019-01-25T10:28:06.492Z,65.40
2019-01-25T10:34:12.502Z,66.80
2019-01-25T10:40:19.998Z,65.20
2019-01-25T10:46:26.114Z,64.00
2019-01-25T10:52:32.131Z,62.17
2019-01-25T10:58:37.910Z,59.70
2019-01-25T11:04:49.810Z,60.83
2019-01-25T11:10:55.730Z,61.33
2019-01-25T11:17:01.734Z,57.83
2019-01-25T11:23:07.577Z,56.40
2019-01-25T11:29:13.379Z,54.77
2019-01-25T11:35:19.500Z,50.70
2019-01-25T11:41:25.676Z,49.97
2019-01-25T11:47:31.551Z,47.87
2019-01-25T11:53:37.971Z,47.43
2019-01-25T11:59:44.451Z,42.53
2019-01-25T12:05:50.272Z,44.07
2019-01-25T12:11:56.046Z,39.17
2019-01-25T12:18:02.125Z,31.40
2019-01-25T12:24:08.386Z,28.43
2019-01-25T12:30:45.482Z,25.03
2019-01-25T12:36:51.160Z,23.07
2019-01-25T12:42:58.169Z,22.87
2019-01-25T12:49:04.005Z,22.20
2019-01-25T12:55:10.546Z,22.50
2019-01-25T13:01:17.814Z,20.07
2019-01-25T13:07:23.792Z,21.43
2019-01-25T13:13:31.701Z,21.47
2019-01-25T13:19:37.527Z,21.23
2019-01-25T13:25:47.295Z,20.50
2019-01-25T13:31:51.776Z,20.00
2019-01-25T13:37:57.716Z,18.30
2019-01-25T13:44:03.873Z,18.17
2019-01-25T13:50:13.116Z,17.30
2019-01-25T13:56:19.312Z,18.50
2019-01-25T14:02:25.557Z,17.03
2019-01-25T14:08:34.011Z,17.33
2019-01-25T14:14:40.249Z,15.97
2019-01-25T14:20:50.348Z,16.60
2019-01-25T14:26:56.128Z,14.53
2019-01-25T14:33:02.167Z,14.37
2019-01-25T14:39:09.964Z,14.50
2019-01-25T14:45:16.647Z,14.70
2019-01-25T14:51:22.558Z,13.67
2019-01-25T14:57:28.476Z,15.00
2019-01-25T15:03:36.345Z,12.67
2019-01-25T15:09:42.099Z,13.43
2019-01-25T15:15:48.467Z,12.53
2019-01-25T15:21:54.564Z,13.73
2019-01-25T15:28:03.915Z,13.10
2019-01-25T15:34:16.517Z,13.03
2019-01-25T15:40:24.345Z,13.77
2019-01-25T15:46:30.345Z,13.50
2019-01-25T15:52:38.142Z,13.73
2019-01-25T15:58:44.079Z,13.47
2019-01-25T16:04:49.939Z,14.43
2019-01-25T16:10:56.060Z,14.87
2019-01-25T16:17:02.145Z,15.50
2019-01-25T16:23:08.060Z,17.83
2019-01-25T16:29:14.193Z,17.00
2019-01-25T16:35:20.083Z,18.80
2019-01-25T16:41:26.410Z,19.80
2019-01-25T16:47:33.353Z,21.47
2019-01-25T16:53:39.258Z,21.77
2019-01-25T16:59:45.167Z,23.47
2019-01-25T17:05:51.200Z,22.80
2019-01-25T17:11:57.016Z,25.63
2019-01-25T17:18:02.812Z,25.43
2019-01-25T17:24:08.612Z,25.20
2019-01-25T17:30:27.139Z,23.40
2019-01-25T17:36:33.236Z,25.10
2019-01-25T17:42:39.023Z,25.97
2019-01-25T17:48:45.054Z,25.40
2019-01-25T17:54:50.984Z,26.80
2019-01-25T18:00:57.485Z,26.47
2019-01-25T18:07:03.576Z,27.00
2019-01-25T18:13:09.434Z,24.90
2019-01-25T18:19:15.510Z,26.33
2019-01-25T18:25:44.503Z,23.73
2019-01-25T18:31:50.315Z,23.00
2019-01-25T18:37:56.283Z,24.23
2019-01-25T18:44:02.124Z,22.57
2019-01-25T18:50:10.406Z,23.63
2019-01-25T18:56:21.110Z,23.07
2019-01-25T19:02:28.965Z,24.13
2019-01-25T19:08:34.804Z,23.27
2019-01-25T19:14:46.125Z,22.27
2019-01-25T19:20:54.445Z,22.93
2019-01-25T19:27:01.128Z,22.93
2019-01-25T19:33:07.623Z,22.10
2019-01-25T19:39:17.300Z,20.53
2019-01-25T19:45:25.505Z,21.20
2019-01-25T19:51:31.355Z,20.57
2019-01-25T19:57:37.137Z,19.23
2019-01-25T20:03:43.179Z,21.30
2019-01-25T20:09:54.267Z,21.17
2019-01-25T20:16:00.236Z,21.97
2019-01-25T20:22:06.872Z,21.53
2019-01-25T20:28:13.042Z,22.57
2019-01-25T20:34:21.756Z,22.13
2019-01-25T20:40:27.616Z,22.87
2019-01-25T20:46:33.602Z,23.37
2019-01-25T20:52:40.604Z,25.03
2019-01-25T20:58:48.026Z,23.90
2019-01-25T21:04:54.761Z,24.13
2019-01-25T21:11:04.868Z,24.50
2019-01-25T21:17:11.956Z,24.00
2019-01-25T21:23:21.712Z,23.83
2019-01-25T21:29:30.170Z,22.67
2019-01-25T21:35:36.167Z,20.60
2019-01-25T21:41:41.882Z,20.33
2019-01-25T21:47:47.907Z,22.17
2019-01-25T21:53:53.799Z,21.53
2019-01-25T21:59:59.669Z,22.13
2019-01-25T22:06:06.257Z,22.10
2019-01-25T22:12:12.133Z,21.80
2019-01-25T22:18:18.081Z,20.87
2019-01-25T22:24:23.888Z,22.23
2019-01-25T22:30:29.910Z,21.77
2019-01-25T22:36:35.724Z,21.90
2019-01-25T22:42:41.516Z,21.67
2019-01-25T22:48:47.273Z,23.07
2019-01-25T22:54:53.145Z,23.20
2019-01-25T23:01:12.026Z,24.97
2019-01-25T23:07:27.641Z,25.63
2019-01-25T23:13:33.363Z,25.67
2019-01-25T23:19:39.197Z,27.13
2019-01-25T23:25:45.280Z,27.37
2019-01-25T23:31:52.902Z,26.93
2019-01-25T23:37:59.006Z,30.03
2019-01-25T23:44:05.132Z,32.07
2019-01-25T23:50:13.370Z,32.30
2019-01-25T23:56:19.176Z,33.03
